sensor_id;sensor_type;location;lat;lon;timestamp;temperature;humidity
1878;DHT22;939;51.426;6.972;2023-02-01T02:11:35;7.00;99.90
1878;DHT22;939;51.426;6.972;2023-02-01T02:14:05;7.00;99.90
1878;DHT22;939;51.426;6.972;2023-02-01T02:16:41;6.90;99.90
1878;DHT22;939;51.426;6.972;2023-02-01T02:19:32;6.90;99.90
1878;DHT22;939;51.426;6.972;2023-02-01T02:22:40;7.00;99.90
1878;DHT22;939;51.426;6.972;2023-02-01T02:28:33;6.90;99.90
1878;DHT22;939;51.426;6.972;2023-02-01T02:31:24;6.90;99.90
1878;DHT22;939;51.426;6.972;2023-02-01T02:34:09;6.90;99.90
1878;DHT22;939;51.426;6.972;2023-02-01T02:36:58;6.90;99.90
1878;DHT22;939;51.426;6.972;2023-02-01T02:39:44;6.90;99.90
1878;DHT22;939;51.426;6.972;2023-02-01T02:42:23;6.90;99.90
1878;DHT22;939;51.426;6.972;2023-02-01T02:45:16;6.90;99.90
1878;DHT22;939;51.426;6.972;2023-02-01T02:48:07;6.80;99.90
1878;DHT22;939;51.426;6.972;2023-02-01T02:50:41;6.90;99.90
1878;DHT22;939;51.426;6.972;2023-02-01T02:53:32;6.90;99.90
1878;DHT22;939;51.426;6.972;2023-02-01T02:56:21;6.90;99.90
1878;DHT22;939;51.426;6.972;2023-02-01T02:59:18;6.90;99.90
1878;DHT22;939;51.426;6.972;2023-02-01T03:02:04;6.80;99.90
1878;DHT22;939;51.426;6.972;2023-02-01T03:04:55;6.80;99.90
1878;DHT22;939;51.426;6.972;2023-02-01T03:07:56;6.80;99.90
1878;DHT22;939;51.426;6.972;2023-02-01T03:10:31;6.70;99.90
1878;DHT22;939;51.426;6.972;2023-02-01T03:13:06;6.60;99.90
1878;DHT22;939;51.426;6.972;2023-02-01T03:15:40;6.60;99.90
1878;DHT22;939;51.426;6.972;2023-02-01T03:18:13;6.50;99.90
1878;DHT22;939;51.426;6.972;2023-02-01T03:20:50;6.50;99.90
1878;DHT22;939;51.426;6.972;2023-02-01T03:23:23;6.50;99.90
1878;DHT22;939;51.426;6.972;2023-02-01T03:25:59;6.50;99.90
1878;DHT22;939;51.426;6.972;2023-02-01T03:28:32;6.50;99.90
1878;DHT22;939;51.426;6.972;2023-02-01T03:31:00;6.60;99.90
1878;DHT22;939;51.426;6.972;2023-02-01T03:33:28;6.60;99.90
1878;DHT22;939;51.426;6.972;2023-02-01T03:36:01;6.50;99.90
1878;DHT22;939;51.426;6.972;2023-02-01T03:38:48;6.60;99.90
1878;DHT22;939;51.426;6.972;2023-02-01T03:41:20;6.60;99.90
1878;DHT22;939;51.426;6.972;2023-02-01T03:43:53;6.60;99.90
1878;DHT22;939;51.426;6.972;2023-02-01T03:46:29;6.70;99.90
1878;DHT22;939;51.426;6.972;2023-02-01T03:49:02;6.60;99.90
1878;DHT22;939;51.426;6.972;2023-02-01T03:51:40;6.60;99.90
1878;DHT22;939;51.426;6.972;2023-02-01T03:54:13;6.70;99.90
1878;DHT22;939;51.426;6.972;2023-02-01T03:56:43;6.70;99.90
1878;DHT22;939;51.426;6.972;2023-02-01T03:59:16;6.70;99.90
1878;DHT22;939;51.426;6.972;2023-02-01T04:01:44;6.70;99.90
1878;DHT22;939;51.426;6.972;2023-02-01T04:04:29;6.80;99.90
1878;DHT22;939;51.426;6.972;2023-02-01T04:06:58;6.70;99.90
1878;DHT22;939;51.426;6.972;2023-02-01T04:09:48;6.70;99.90
1878;DHT22;939;51.426;6.972;2023-02-01T04:12:25;6.60;99.90
1878;DHT22;939;51.426;6.972;2023-02-01T04:15:12;6.70;99.90
1878;DHT22;939;51.426;6.972;2023-02-01T04:17:53;6.60;99.90
1878;DHT22;939;51.426;6.972;2023-02-01T04:20:23;6.70;99.90
1878;DHT22;939;51.426;6.972;2023-02-01T04:23:04;6.60;99.90
1878;DHT22;939;51.426;6.972;2023-02-01T04:25:35;6.60;99.90
1878;DHT22;939;51.426;6.972;2023-02-01T04:28:04;6.50;99.90
1878;DHT22;939;51.426;6.972;2023-02-01T04:30:40;6.50;99.90
1878;DHT22;939;51.426;6.972;2023-02-01T06:31:18;6.30;99.90
1878;DHT22;939;51.426;6.972;2023-02-01T06:33:45;6.40;99.90
1878;DHT22;939;51.426;6.972;2023-02-01T06:36:12;6.40;99.90
1878;DHT22;939;51.426;6.972;2023-02-01T06:38:47;6.40;99.90
1878;DHT22;939;51.426;6.972;2023-02-01T06:41:14;6.40;99.90
1878;DHT22;939;51.426;6.972;2023-02-01T06:43:42;6.40;99.90
1878;DHT22;939;51.426;6.972;2023-02-01T06:46:11;6.40;99.90
1878;DHT22;939;51.426;6.972;2023-02-01T06:48:41;6.50;99.90
1878;DHT22;939;51.426;6.972;2023-02-01T06:51:18;6.50;99.90
1878;DHT22;939;51.426;6.972;2023-02-01T06:53:46;6.50;99.90
1878;DHT22;939;51.426;6.972;2023-02-01T06:56:13;6.50;99.90
1878;DHT22;939;51.426;6.972;2023-02-01T06:58:40;6.60;99.90
1878;DHT22;939;51.426;6.972;2023-02-01T07:01:08;6.60;99.90
1878;DHT22;939;51.426;6.972;2023-02-01T07:03:36;6.60;99.90
1878;DHT22;939;51.426;6.972;2023-02-01T07:06:05;6.60;99.90
1878;DHT22;939;51.426;6.972;2023-02-01T07:08:36;6.60;99.90
1878;DHT22;939;51.426;6.972;2023-02-01T07:11:05;6.60;99.90
1878;DHT22;939;51.426;6.972;2023-02-01T07:13:32;6.60;99.90
1878;DHT22;939;51.426;6.972;2023-02-01T07:15:59;6.60;99.90
1878;DHT22;939;51.426;6.972;2023-02-01T07:18:27;6.60;99.90
1878;DHT22;939;51.426;6.972;2023-02-01T07:20:55;6.60;99.90
1878;DHT22;939;51.426;6.972;2023-02-01T07:23:25;6.60;99.90
1878;DHT22;939;51.426;6.972;2023-02-01T07:25:54;6.60;99.90
1878;DHT22;939;51.426;6.972;2023-02-01T07:28:21;6.70;99.90
1878;DHT22;939;51.426;6.972;2023-02-01T07:30:49;6.70;99.90
1878;DHT22;939;51.426;6.972;2023-02-01T07:33:21;6.70;99.90
1878;DHT22;939;51.426;6.972;2023-02-01T07:35:49;6.70;99.90
1878;DHT22;939;51.426;6.972;2023-02-01T07:38:16;6.70;99.90
1878;DHT22;939;51.426;6.972;2023-02-01T07:40:46;6.60;99.90
1878;DHT22;939;51.426;6.972;2023-02-01T07:43:13;6.60;99.90
1878;DHT22;939;51.426;6.972;2023-02-01T07:45:40;6.70;99.90
1878;DHT22;939;51.426;6.972;2023-02-01T07:48:10;6.70;99.90
1878;DHT22;939;51.426;6.972;2023-02-01T07:50:43;6.70;99.90
1878;DHT22;939;51.426;6.972;2023-02-01T07:53:11;6.60;99.90
1878;DHT22;939;51.426;6.972;2023-02-01T07:55:38;6.70;99.90
1878;DHT22;939;51.426;6.972;2023-02-01T07:58:07;6.70;99.90
1878;DHT22;939;51.426;6.972;2023-02-01T08:00:34;6.80;99.90
1878;DHT22;939;51.426;6.972;2023-02-01T08:03:18;6.80;99.90
1878;DHT22;939;51.426;6.972;2023-02-01T08:05:45;6.80;99.90
1878;DHT22;939;51.426;6.972;2023-02-01T08:08:15;6.80;99.90
1878;DHT22;939;51.426;6.972;2023-02-01T08:10:48;6.80;99.90
1878;DHT22;939;51.426;6.972;2023-02-01T08:13:33;6.80;99.90
1878;DHT22;939;51.426;6.972;2023-02-01T08:16:02;6.80;99.90
1878;DHT22;939;51.426;6.972;2023-02-01T08:18:30;6.80;99.90
1878;DHT22;939;51.426;6.972;2023-02-01T08:21:01;6.90;99.90
1878;DHT22;939;51.426;6.972;2023-02-01T08:23:29;6.90;99.90
1878;DHT22;939;51.426;6.972;2023-02-01T08:26:04;6.90;99.90
1878;DHT22;939;51.426;6.972;2023-02-01T08:28:33;6.90;99.90
1878;DHT22;939;51.426;6.972;2023-02-01T08:31:04;6.90;99.90
1878;DHT22;939;51.426;6.972;2023-02-01T08:33:32;6.90;99.90
1878;DHT22;939;51.426;6.972;2023-02-01T08:36:01;6.90;99.90
1878;DHT22;939;51.426;6.972;2023-02-01T08:38:29;7.00;99.90
1878;DHT22;939;51.426;6.972;2023-02-01T08:40:56;7.00;99.90
1878;DHT22;939;51.426;6.972;2023-02-01T08:43:23;7.00;99.90
1878;DHT22;939;51.426;6.972;2023-02-01T08:45:54;7.00;99.90
1878;DHT22;939;51.426;6.972;2023-02-01T08:48:21;7.00;99.90
1878;DHT22;939;51.426;6.972;2023-02-01T08:50:48;7.00;99.90
1878;DHT22;939;51.426;6.972;2023-02-01T08:53:24;6.90;99.90
1878;DHT22;939;51.426;6.972;2023-02-01T08:55:52;6.90;99.90
1878;DHT22;939;51.426;6.972;2023-02-01T08:58:20;7.00;99.90
1878;DHT22;939;51.426;6.972;2023-02-01T09:01:01;7.00;99.90
1878;DHT22;939;51.426;6.972;2023-02-01T09:03:31;7.00;99.90
1878;DHT22;939;51.426;6.972;2023-02-01T09:06:16;7.00;99.90
1878;DHT22;939;51.426;6.972;2023-02-01T09:08:43;7.00;99.90
1878;DHT22;939;51.426;6.972;2023-02-01T09:11:18;7.00;99.90
1878;DHT22;939;51.426;6.972;2023-02-01T09:13:51;7.10;99.90
1878;DHT22;939;51.426;6.972;2023-02-01T09:16:22;7.10;99.90
1878;DHT22;939;51.426;6.972;2023-02-01T09:18:50;7.10;99.90
1878;DHT22;939;51.426;6.972;2023-02-01T09:21:19;7.10;99.90
1878;DHT22;939;51.426;6.972;2023-02-01T09:23:54;7.20;99.90
1878;DHT22;939;51.426;6.972;2023-02-01T09:26:34;7.10;99.90
1878;DHT22;939;51.426;6.972;2023-02-01T09:29:07;7.00;99.90
1878;DHT22;939;51.426;6.972;2023-02-01T09:31:41;7.00;99.90
1878;DHT22;939;51.426;6.972;2023-02-01T09:34:11;7.00;99.90
1878;DHT22;939;51.426;6.972;2023-02-01T09:36:46;7.00;99.90
1878;DHT22;939;51.426;6.972;2023-02-01T09:39:14;7.10;99.90
1878;DHT22;939;51.426;6.972;2023-02-01T09:41:49;7.10;99.90
1878;DHT22;939;51.426;6.972;2023-02-01T09:44:43;7.10;99.90
1878;DHT22;939;51.426;6.972;2023-02-01T09:47:29;7.10;99.90
1878;DHT22;939;51.426;6.972;2023-02-01T09:50:02;7.10;99.90
1878;DHT22;939;51.426;6.972;2023-02-01T09:52:36;7.10;99.90
1878;DHT22;939;51.426;6.972;2023-02-01T09:55:13;7.10;99.90
1878;DHT22;939;51.426;6.972;2023-02-01T09:58:02;7.10;99.90
1878;DHT22;939;51.426;6.972;2023-02-01T10:00:39;7.20;99.90
1878;DHT22;939;51.426;6.972;2023-02-01T10:05:33;7.20;99.90
1878;DHT22;939;51.426;6.972;2023-02-01T10:06:45;7.30;99.90
1878;DHT22;939;51.426;6.972;2023-02-01T10:09:27;7.20;99.90
1878;DHT22;939;51.426;6.972;2023-02-01T10:12:29;7.20;99.90
1878;DHT22;939;51.426;6.972;2023-02-01T10:15:11;7.20;99.90
1878;DHT22;939;51.426;6.972;2023-02-01T10:17:58;7.20;99.90
1878;DHT22;939;51.426;6.972;2023-02-01T10:20:41;7.30;99.90
1878;DHT22;939;51.426;6.972;2023-02-01T10:23:26;7.30;99.90
1878;DHT22;939;51.426;6.972;2023-02-01T10:25:58;7.40;99.90
1878;DHT22;939;51.426;6.972;2023-02-01T10:28:29;7.50;99.90
1878;DHT22;939;51.426;6.972;2023-02-01T10:31:05;7.50;99.90
1878;DHT22;939;51.426;6.972;2023-02-01T10:33:39;7.50;99.90
1878;DHT22;939;51.426;6.972;2023-02-01T10:36:15;7.50;99.90
1878;DHT22;939;51.426;6.972;2023-02-01T10:38:44;7.50;99.90
1878;DHT22;939;51.426;6.972;2023-02-01T10:41:13;7.50;99.90
1878;DHT22;939;51.426;6.972;2023-02-01T10:43:41;7.50;99.90
1878;DHT22;939;51.426;6.972;2023-02-01T10:46:09;7.50;99.90
1878;DHT22;939;51.426;6.972;2023-02-01T10:48:38;7.50;99.90
1878;DHT22;939;51.426;6.972;2023-02-01T10:51:26;7.50;99.90
1878;DHT22;939;51.426;6.972;2023-02-01T10:54:08;7.50;99.90
1878;DHT22;939;51.426;6.972;2023-02-01T10:56:38;7.50;99.90
1878;DHT22;939;51.426;6.972;2023-02-01T10:59:13;7.50;99.90
1878;DHT22;939;51.426;6.972;2023-02-01T11:02:16;7.50;99.90
1878;DHT22;939;51.426;6.972;2023-02-01T11:04:45;7.50;99.90
1878;DHT22;939;51.426;6.972;2023-02-01T11:07:20;7.50;99.90
1878;DHT22;939;51.426;6.972;2023-02-01T11:09:56;7.50;99.90
1878;DHT22;939;51.426;6.972;2023-02-01T11:12:36;7.60;99.90
1878;DHT22;939;51.426;6.972;2023-02-01T11:15:26;7.60;99.90
1878;DHT22;939;51.426;6.972;2023-02-01T11:18:16;7.70;99.90
1878;DHT22;939;51.426;6.972;2023-02-01T11:20:56;7.60;99.90
1878;DHT22;939;51.426;6.972;2023-02-01T11:23:41;7.60;99.90
1878;DHT22;939;51.426;6.972;2023-02-01T11:26:22;7.70;99.90
1878;DHT22;939;51.426;6.972;2023-02-01T11:28:54;7.80;99.90
1878;DHT22;939;51.426;6.972;2023-02-01T11:31:24;7.90;99.90
1878;DHT22;939;51.426;6.972;2023-02-01T11:33:59;7.80;99.90
1878;DHT22;939;51.426;6.972;2023-02-01T11:36:28;7.80;99.90
1878;DHT22;939;51.426;6.972;2023-02-01T11:39:23;7.80;99.90
1878;DHT22;939;51.426;6.972;2023-02-01T11:42:01;7.80;99.90
1878;DHT22;939;51.426;6.972;2023-02-01T11:44:32;7.80;99.90
1878;DHT22;939;51.426;6.972;2023-02-01T11:47:21;7.90;99.90
1878;DHT22;939;51.426;6.972;2023-02-01T11:49:50;7.90;99.90
1878;DHT22;939;51.426;6.972;2023-02-01T11:52:29;7.80;99.90
1878;DHT22;939;51.426;6.972;2023-02-01T11:55:23;7.90;99.90
1878;DHT22;939;51.426;6.972;2023-02-01T11:58:10;7.80;99.90
1878;DHT22;939;51.426;6.972;2023-02-01T12:00:59;7.80;99.90
1878;DHT22;939;51.426;6.972;2023-02-01T12:06:44;7.60;99.90
1878;DHT22;939;51.426;6.972;2023-02-01T12:09:47;7.70;99.90
1878;DHT22;939;51.426;6.972;2023-02-01T12:12:31;7.60;99.90
1878;DHT22;939;51.426;6.972;2023-02-01T12:15:14;7.60;99.90
1878;DHT22;939;51.426;6.972;2023-02-01T12:21:13;7.50;99.90
1878;DHT22;939;51.426;6.972;2023-02-01T12:24:07;7.50;99.90
1878;DHT22;939;51.426;6.972;2023-02-01T12:26:55;7.50;99.90
1878;DHT22;939;51.426;6.972;2023-02-01T12:32:40;7.60;99.90
1878;DHT22;939;51.426;6.972;2023-02-01T12:36:41;7.60;99.90
1878;DHT22;939;51.426;6.972;2023-02-01T12:38:45;7.60;99.90
1878;DHT22;939;51.426;6.972;2023-02-01T12:44:49;7.70;99.90
1878;DHT22;939;51.426;6.972;2023-02-01T12:47:28;7.80;99.90
1878;DHT22;939;51.426;6.972;2023-02-01T12:50:01;7.80;99.90
1878;DHT22;939;51.426;6.972;2023-02-01T12:52:35;7.70;99.90
1878;DHT22;939;51.426;6.972;2023-02-01T12:55:10;7.70;99.90
1878;DHT22;939;51.426;6.972;2023-02-01T12:57:44;7.70;99.90
1878;DHT22;939;51.426;6.972;2023-02-01T13:00:20;7.70;99.90
1878;DHT22;939;51.426;6.972;2023-02-01T13:02:53;7.80;99.90
1878;DHT22;939;51.426;6.972;2023-02-01T13:05:23;7.80;99.90
1878;DHT22;939;51.426;6.972;2023-02-01T13:07:53;7.80;99.90
1878;DHT22;939;51.426;6.972;2023-02-01T13:10:36;7.80;99.90
1878;DHT22;939;51.426;6.972;2023-02-01T13:13:11;7.80;99.90
1878;DHT22;939;51.426;6.972;2023-02-01T13:16:02;7.80;99.90
1878;DHT22;939;51.426;6.972;2023-02-01T13:18:43;7.80;99.90
1878;DHT22;939;51.426;6.972;2023-02-01T13:21:15;7.70;99.90
1878;DHT22;939;51.426;6.972;2023-02-01T13:23:47;7.70;99.90
1878;DHT22;939;51.426;6.972;2023-02-01T13:26:24;7.70;99.90
1878;DHT22;939;51.426;6.972;2023-02-01T13:28:57;7.70;99.90
1878;DHT22;939;51.426;6.972;2023-02-01T13:31:56;7.80;99.90
1878;DHT22;939;51.426;6.972;2023-02-01T13:34:54;7.80;99.90
1878;DHT22;939;51.426;6.972;2023-02-01T13:37:34;7.80;99.90
1878;DHT22;939;51.426;6.972;2023-02-01T13:40:39;7.80;99.90
1878;DHT22;939;51.426;6.972;2023-02-01T13:43:14;7.80;99.90
1878;DHT22;939;51.426;6.972;2023-02-01T13:46:16;7.80;99.90
1878;DHT22;939;51.426;6.972;2023-02-01T13:49:20;7.90;99.90
1878;DHT22;939;51.426;6.972;2023-02-01T13:51:51;7.90;99.90
1878;DHT22;939;51.426;6.972;2023-02-01T13:54:28;8.00;99.90
1878;DHT22;939;51.426;6.972;2023-02-01T13:56:58;8.00;99.90
1878;DHT22;939;51.426;6.972;2023-02-01T14:06:00;8.10;99.90
1878;DHT22;939;51.426;6.972;2023-02-01T14:11:36;8.00;99.90
1878;DHT22;939;51.426;6.972;2023-02-01T14:14:50;8.00;99.90
1878;DHT22;939;51.426;6.972;2023-02-01T14:17:35;8.00;99.90
1878;DHT22;939;51.426;6.972;2023-02-01T14:23:48;8.10;99.90
1878;DHT22;939;51.426;6.972;2023-02-01T14:26:27;8.00;99.90
1878;DHT22;939;51.426;6.972;2023-02-01T14:29:03;8.10;99.90
1878;DHT22;939;51.426;6.972;2023-02-01T14:32:00;8.10;99.90
1878;DHT22;939;51.426;6.972;2023-02-01T14:34:48;8.20;99.90
1878;DHT22;939;51.426;6.972;2023-02-01T14:37:32;8.10;99.90
1878;DHT22;939;51.426;6.972;2023-02-01T14:40:04;8.20;99.90
1878;DHT22;939;51.426;6.972;2023-02-01T14:42:42;8.20;99.90
1878;DHT22;939;51.426;6.972;2023-02-01T14:45:49;8.20;99.90
1878;DHT22;939;51.426;6.972;2023-02-01T14:48:41;8.20;99.90
1878;DHT22;939;51.426;6.972;2023-02-01T14:51:11;8.20;99.90
1878;DHT22;939;51.426;6.972;2023-02-01T14:53:40;8.20;99.90
1878;DHT22;939;51.426;6.972;2023-02-01T14:56:14;8.30;99.90
1878;DHT22;939;51.426;6.972;2023-02-01T14:58:43;8.20;99.90
1878;DHT22;939;51.426;6.972;2023-02-01T15:01:18;8.20;99.90
1878;DHT22;939;51.426;6.972;2023-02-01T15:04:00;8.20;99.90
1878;DHT22;939;51.426;6.972;2023-02-01T15:06:32;8.20;99.90
1878;DHT22;939;51.426;6.972;2023-02-01T15:09:04;8.30;99.90
1878;DHT22;939;51.426;6.972;2023-02-01T15:12:03;8.30;99.90
1878;DHT22;939;51.426;6.972;2023-02-01T15:14:34;8.30;99.90
1878;DHT22;939;51.426;6.972;2023-02-01T15:50:49;8.20;99.90
1878;DHT22;939;51.426;6.972;2023-02-01T15:53:20;8.30;99.90
1878;DHT22;939;51.426;6.972;2023-02-01T15:55:52;8.30;99.90
1878;DHT22;939;51.426;6.972;2023-02-01T15:58:27;8.20;99.90
1878;DHT22;939;51.426;6.972;2023-02-01T16:01:11;8.20;99.90
1878;DHT22;939;51.426;6.972;2023-02-01T16:03:46;8.20;99.90
1878;DHT22;939;51.426;6.972;2023-02-01T16:06:46;8.20;99.90
1878;DHT22;939;51.426;6.972;2023-02-01T16:09:19;8.20;99.90
1878;DHT22;939;51.426;6.972;2023-02-01T16:11:56;8.20;99.90
1878;DHT22;939;51.426;6.972;2023-02-01T16:14:25;8.20;99.90
1878;DHT22;939;51.426;6.972;2023-02-01T16:16:53;8.30;99.90
1878;DHT22;939;51.426;6.972;2023-02-01T16:19:21;8.20;99.90
1878;DHT22;939;51.426;6.972;2023-02-01T16:21:59;8.20;99.90
1878;DHT22;939;51.426;6.972;2023-02-01T16:24:26;8.20;99.90
1878;DHT22;939;51.426;6.972;2023-02-01T16:26:53;8.30;99.90
1878;DHT22;939;51.426;6.972;2023-02-01T16:29:20;8.20;99.90
1878;DHT22;939;51.426;6.972;2023-02-01T16:31:59;8.20;99.90
1878;DHT22;939;51.426;6.972;2023-02-01T16:34:30;8.00;99.90
1878;DHT22;939;51.426;6.972;2023-02-01T16:37:03;8.00;99.90
1878;DHT22;939;51.426;6.972;2023-02-01T16:39:33;7.90;99.90
1878;DHT22;939;51.426;6.972;2023-02-01T16:42:12;7.90;99.90
1878;DHT22;939;51.426;6.972;2023-02-01T16:44:43;7.90;99.90
1878;DHT22;939;51.426;6.972;2023-02-01T16:47:17;7.80;99.90
1878;DHT22;939;51.426;6.972;2023-02-01T16:50:02;7.70;99.90
1878;DHT22;939;51.426;6.972;2023-02-01T16:52:42;7.70;99.90
1878;DHT22;939;51.426;6.972;2023-02-01T16:55:23;7.60;99.90
1878;DHT22;939;51.426;6.972;2023-02-01T16:57:51;7.60;99.90
1878;DHT22;939;51.426;6.972;2023-02-01T17:00:20;7.70;99.90
1878;DHT22;939;51.426;6.972;2023-02-01T17:02:49;7.70;99.90
1878;DHT22;939;51.426;6.972;2023-02-01T17:05:16;7.70;99.90
1878;DHT22;939;51.426;6.972;2023-02-01T17:07:51;7.70;99.90
1878;DHT22;939;51.426;6.972;2023-02-01T17:10:23;7.70;99.90
1878;DHT22;939;51.426;6.972;2023-02-01T17:12:51;7.80;99.90
1878;DHT22;939;51.426;6.972;2023-02-01T17:15:23;7.70;99.90
1878;DHT22;939;51.426;6.972;2023-02-01T17:18:01;7.80;99.90
1878;DHT22;939;51.426;6.972;2023-02-01T17:20:30;7.80;99.90
1878;DHT22;939;51.426;6.972;2023-02-01T17:22:59;7.90;99.90
1878;DHT22;939;51.426;6.972;2023-02-01T17:25:30;7.90;99.90
1878;DHT22;939;51.426;6.972;2023-02-01T17:27:57;7.90;99.90
1878;DHT22;939;51.426;6.972;2023-02-01T17:30:29;7.90;99.90
1878;DHT22;939;51.426;6.972;2023-02-01T17:32:56;7.90;99.90
1878;DHT22;939;51.426;6.972;2023-02-01T17:35:30;8.00;99.90
1878;DHT22;939;51.426;6.972;2023-02-01T17:38:00;8.00;99.90
1878;DHT22;939;51.426;6.972;2023-02-01T17:40:29;8.00;99.90
1878;DHT22;939;51.426;6.972;2023-02-01T17:43:19;8.00;99.90
1878;DHT22;939;51.426;6.972;2023-02-01T17:45:51;8.00;99.90
1878;DHT22;939;51.426;6.972;2023-02-01T17:48:21;8.00;99.90
1878;DHT22;939;51.426;6.972;2023-02-01T17:50:49;8.00;99.90
1878;DHT22;939;51.426;6.972;2023-02-01T17:53:20;8.00;99.90
1878;DHT22;939;51.426;6.972;2023-02-01T17:55:49;8.00;99.90
1878;DHT22;939;51.426;6.972;2023-02-01T17:58:19;7.90;99.90
1878;DHT22;939;51.426;6.972;2023-02-01T18:00:55;8.00;99.90
1878;DHT22;939;51.426;6.972;2023-02-01T18:03:25;8.00;99.90
1878;DHT22;939;51.426;6.972;2023-02-01T18:05:55;8.00;99.90
1878;DHT22;939;51.426;6.972;2023-02-01T18:08:26;7.90;99.90
1878;DHT22;939;51.426;6.972;2023-02-01T18:11:12;7.90;99.90
1878;DHT22;939;51.426;6.972;2023-02-01T18:13:42;7.90;99.90
1878;DHT22;939;51.426;6.972;2023-02-01T18:16:20;7.90;99.90
1878;DHT22;939;51.426;6.972;2023-02-01T18:18:50;7.80;99.90
1878;DHT22;939;51.426;6.972;2023-02-01T18:21:20;7.90;99.90
1878;DHT22;939;51.426;6.972;2023-02-01T18:23:58;7.90;99.90
1878;DHT22;939;51.426;6.972;2023-02-01T18:26:25;7.90;99.90
1878;DHT22;939;51.426;6.972;2023-02-01T18:28:53;8.00;99.90
1878;DHT22;939;51.426;6.972;2023-02-01T18:31:25;8.00;99.90
1878;DHT22;939;51.426;6.972;2023-02-01T18:33:53;8.00;99.90
1878;DHT22;939;51.426;6.972;2023-02-01T18:36:21;8.00;99.90
1878;DHT22;939;51.426;6.972;2023-02-01T18:38:54;8.00;99.90
1878;DHT22;939;51.426;6.972;2023-02-01T18:41:22;8.00;99.90
1878;DHT22;939;51.426;6.972;2023-02-01T18:43:51;7.90;99.90
1878;DHT22;939;51.426;6.972;2023-02-01T18:46:18;7.90;99.90
1878;DHT22;939;51.426;6.972;2023-02-01T18:48:46;8.00;99.90
1878;DHT22;939;51.426;6.972;2023-02-01T18:51:17;7.90;99.90
1878;DHT22;939;51.426;6.972;2023-02-01T18:53:47;7.90;99.90
1878;DHT22;939;51.426;6.972;2023-02-01T18:56:16;8.00;99.90
1878;DHT22;939;51.426;6.972;2023-02-01T18:58:44;8.00;99.90
1878;DHT22;939;51.426;6.972;2023-02-01T19:01:15;8.00;99.90
1878;DHT22;939;51.426;6.972;2023-02-01T19:03:43;8.00;99.90
1878;DHT22;939;51.426;6.972;2023-02-01T19:06:11;8.00;99.90
1878;DHT22;939;51.426;6.972;2023-02-01T19:08:38;8.00;99.90
1878;DHT22;939;51.426;6.972;2023-02-01T19:11:05;8.00;99.90
1878;DHT22;939;51.426;6.972;2023-02-01T19:13:35;8.10;99.90
1878;DHT22;939;51.426;6.972;2023-02-01T19:16:24;8.10;99.90
1878;DHT22;939;51.426;6.972;2023-02-01T19:18:53;8.10;99.90
1878;DHT22;939;51.426;6.972;2023-02-01T19:25:46;8.10;99.90
1878;DHT22;939;51.426;6.972;2023-02-01T19:28:26;8.20;99.90
1878;DHT22;939;51.426;6.972;2023-02-01T19:31:05;8.20;99.90
1878;DHT22;939;51.426;6.972;2023-02-01T19:33:33;8.20;99.90
1878;DHT22;939;51.426;6.972;2023-02-01T19:36:23;8.20;99.90
1878;DHT22;939;51.426;6.972;2023-02-01T19:39:10;8.10;99.90
1878;DHT22;939;51.426;6.972;2023-02-01T19:42:13;8.20;99.90
1878;DHT22;939;51.426;6.972;2023-02-01T19:44:52;8.20;99.90
1878;DHT22;939;51.426;6.972;2023-02-01T19:51:05;8.00;99.90
1878;DHT22;939;51.426;6.972;2023-02-01T19:53:44;8.10;99.90
1878;DHT22;939;51.426;6.972;2023-02-01T20:09:54;7.30;99.90
1878;DHT22;939;51.426;6.972;2023-02-01T20:12:24;6.90;99.90
1878;DHT22;939;51.426;6.972;2023-02-01T20:16:43;6.60;99.90
1878;DHT22;939;51.426;6.972;2023-02-01T20:21:43;6.40;99.90
1878;DHT22;939;51.426;6.972;2023-02-01T20:24:14;6.40;99.90
1878;DHT22;939;51.426;6.972;2023-02-01T20:26:44;6.40;99.90
1878;DHT22;939;51.426;6.972;2023-02-01T20:29:21;6.40;99.90
